Time;durP1;ratioP1;P1;durP2;ratioP2;P2;SDS_P1;SDS_P2;PMS_P1;PMS_P2;Temp;Humidity;BMP_temperature;BMP_pressure;BME280_temperature;BME280_humidity;BME280_pressure;Samples;Min_cycle;Max_cycle;Signal;HPM_P1;HPM_P2
2024/04/06 00:01:52;;;;;;;5.53;2.00;;;;;;;13.06;100.00;100801.91;8377009;28;20091;-83
2024/04/06 00:05:53;;;;;;;3.65;2.33;;;;;;;13.23;100.00;100799.84;8375905;28;20049;-83
2024/04/06 00:09:53;;;;;;;4.85;1.85;;;;;;;13.07;100.00;100787.44;8378834;28;20060;-83
2024/04/06 00:13:54;;;;;;;5.10;2.50;;;;;;;13.42;100.00;100788.41;8390024;28;20033;-82
2024/04/06 00:17:54;;;;;;;6.15;2.30;;;;;;;12.79;100.00;100794.56;8389634;28;20049;-82
2024/04/06 00:21:55;;;;;;;6.40;2.25;;;;;;;13.11;100.00;100799.47;8400193;28;20488;-83
2024/04/06 00:25:56;;;;;;;6.68;2.40;;;;;;;12.99;100.00;100801.81;8358889;28;20041;-83
2024/04/06 00:29:56;;;;;;;5.25;2.83;;;;;;;12.96;100.00;100794.16;8376381;28;20069;-83
2024/04/06 00:34:01;;;;;;;4.10;1.95;;;;;;;12.91;100.00;100795.75;8385362;28;20041;-83
2024/04/06 00:38:02;;;;;;;4.60;2.10;;;;;;;12.74;100.00;100787.09;8383777;28;20057;-82
2024/04/06 00:42:03;;;;;;;3.05;1.98;;;;;;;12.54;100.00;100796.78;8386698;28;20061;-83
2024/04/06 00:46:03;;;;;;;3.03;2.00;;;;;;;12.60;100.00;100801.41;8379425;28;20049;-83
2024/04/06 00:50:09;;;;;;;2.97;2.17;;;;;;;12.98;100.00;100805.53;8377704;28;20041;-82
2024/04/06 00:54:10;;;;;;;4.25;2.10;;;;;;;12.53;100.00;100809.38;8376876;28;20491;-82
2024/04/06 00:58:11;;;;;;;5.63;2.38;;;;;;;12.70;100.00;100814.56;8358206;28;20084;-82
2024/04/06 01:02:11;;;;;;;4.55;2.75;;;;;;;12.59;100.00;100811.31;8380515;28;20128;-82
2024/04/06 01:06:12;;;;;;;4.13;2.80;;;;;;;12.35;100.00;100814.31;8377969;28;20065;-82
2024/04/06 01:10:13;;;;;;;5.25;2.42;;;;;;;12.42;100.00;100817.91;8378006;28;20057;-84
2024/04/06 01:14:13;;;;;;;3.40;2.45;;;;;;;12.02;100.00;100825.44;8370562;28;20443;-84
2024/04/06 01:18:14;;;;;;;4.05;2.60;;;;;;;12.15;100.00;100832.00;8378270;28;20060;-84
2024/04/06 01:22:14;;;;;;;4.05;2.67;;;;;;;12.22;100.00;100830.25;8359110;28;20056;-85
2024/04/06 01:26:15;;;;;;;3.25;2.33;;;;;;;12.16;100.00;100844.44;8380540;28;20045;-84
2024/04/06 01:30:16;;;;;;;5.70;2.80;;;;;;;12.38;100.00;100840.81;8378984;28;20068;-85
2024/04/06 01:34:16;;;;;;;5.53;2.42;;;;;;;12.25;100.00;100841.47;8352573;28;20045;-85
2024/04/06 01:38:17;;;;;;;4.20;2.53;;;;;;;12.31;100.00;100851.44;8355801;28;20052;-85
2024/04/06 01:42:18;;;;;;;5.50;2.95;;;;;;;12.33;100.00;100860.19;8352176;28;20072;-85
2024/04/06 01:46:19;;;;;;;4.68;2.70;;;;;;;12.15;100.00;100869.59;8347247;28;20119;-85
2024/04/06 01:50:20;;;;;;;3.38;2.67;;;;;;;12.28;100.00;100870.63;8370896;28;20091;-85
2024/04/06 01:54:20;;;;;;;3.72;2.80;;;;;;;12.41;100.00;100872.69;8375149;28;20419;-85
2024/04/06 01:58:21;;;;;;;3.17;2.22;;;;;;;12.29;100.00;100864.25;8379306;28;20057;-85
2024/04/06 02:02:22;;;;;;;4.93;2.53;;;;;;;12.20;100.00;100873.44;8379519;28;20088;-85
2024/04/06 02:06:22;;;;;;;6.95;2.50;;;;;;;12.22;100.00;100866.00;8377831;28;20059;-85
2024/04/06 02:10:23;;;;;;;4.05;2.78;;;;;;;12.18;100.00;100872.78;8382598;28;20436;-84
2024/04/06 02:14:23;;;;;;;4.07;2.35;;;;;;;12.31;100.00;100883.69;8386425;28;20052;-85
2024/04/06 02:18:24;;;;;;;4.55;2.30;;;;;;;12.34;100.00;100885.19;8380091;28;20056;-85
2024/04/06 02:22:25;;;;;;;6.18;2.47;;;;;;;12.46;100.00;100881.00;8380182;28;20048;-85
2024/04/06 02:26:25;;;;;;;3.67;2.33;;;;;;;12.24;100.00;100879.25;8382965;28;20083;-85
2024/04/06 02:30:26;;;;;;;5.55;2.33;;;;;;;11.99;100.00;100876.00;8380714;28;20103;-85
2024/04/06 02:34:27;;;;;;;4.32;2.67;;;;;;;11.97;100.00;100870.78;8358262;28;20052;-84
2024/04/06 02:38:27;;;;;;;3.75;2.83;;;;;;;12.00;100.00;100875.81;8377404;28;20434;-84
2024/04/06 02:42:28;;;;;;;3.25;2.80;;;;;;;12.05;100.00;100869.88;8374291;28;20052;-85
2024/04/06 02:46:29;;;;;;;6.85;3.22;;;;;;;11.87;100.00;100874.78;8394535;28;20041;-85
2024/04/06 02:50:30;;;;;;;4.97;2.65;;;;;;;12.00;100.00;100866.94;8398936;28;20057;-84
2024/04/06 02:54:31;;;;;;;4.15;2.78;;;;;;;11.86;100.00;100873.09;8377461;28;20057;-85
2024/04/06 02:58:31;;;;;;;4.72;2.67;;;;;;;11.85;100.00;100877.63;8375422;28;20064;-84
2024/04/06 03:02:32;;;;;;;4.20;2.20;;;;;;;11.95;100.00;100877.38;8383794;28;20053;-85
2024/04/06 03:06:32;;;;;;;4.28;2.40;;;;;;;11.83;100.00;100877.00;8399287;28;20121;-85
2024/04/06 03:10:33;;;;;;;4.43;2.60;;;;;;;11.72;100.00;100882.75;8387031;28;20060;-84
2024/04/06 03:14:33;;;;;;;5.00;2.85;;;;;;;11.57;100.00;100888.06;8396697;28;20053;-85
2024/04/06 03:18:34;;;;;;;6.05;2.80;;;;;;;11.87;100.00;100897.09;8392150;28;20110;-85
2024/04/06 03:22:35;;;;;;;5.65;2.83;;;;;;;11.65;100.00;100896.06;8374607;28;20057;-85
2024/04/06 03:26:36;;;;;;;3.95;2.80;;;;;;;12.06;100.00;100891.19;8350985;28;20056;-85
2024/04/06 03:30:36;;;;;;;8.38;3.75;;;;;;;11.86;100.00;100886.53;8365480;28;20059;-84
2024/04/06 03:34:37;;;;;;;4.63;2.60;;;;;;;11.65;100.00;100897.91;8382562;28;20084;-84
2024/04/06 03:38:38;;;;;;;6.00;3.00;;;;;;;11.82;100.00;100887.91;8353383;28;20077;-84
2024/04/06 03:42:38;;;;;;;3.38;2.80;;;;;;;11.84;100.00;100885.88;8353306;28;20053;-84
2024/04/06 03:46:39;;;;;;;3.97;2.72;;;;;;;11.65;100.00;100896.06;8361531;28;20071;-84
2024/04/06 03:50:40;;;;;;;5.47;2.80;;;;;;;11.79;100.00;100891.78;8361065;28;20056;-85
2024/04/06 03:54:41;;;;;;;2.95;2.47;;;;;;;11.73;100.00;100901.34;8360780;28;20100;-84
2024/04/06 03:58:42;;;;;;;4.40;2.50;;;;;;;11.66;100.00;100895.06;8361841;28;20102;-85
2024/04/06 04:02:42;;;;;;;2.90;2.58;;;;;;;11.39;100.00;100896.41;8378005;28;20049;-85
2024/04/06 04:06:43;;;;;;;3.33;2.63;;;;;;;11.60;100.00;100897.59;8363254;28;20056;-85
2024/04/06 04:10:44;;;;;;;4.35;2.53;;;;;;;11.38;100.00;100894.75;8361124;28;20468;-84
2024/04/06 04:14:44;;;;;;;5.57;2.60;;;;;;;11.46;100.00;100894.72;8372568;28;20132;-84
2024/04/06 04:18:46;;;;;;;9.05;3.00;;;;;;;11.41;100.00;100896.25;8373653;28;20061;-85
2024/04/06 04:22:46;;;;;;;3.58;2.95;;;;;;;11.39;100.00;100907.16;8348287;28;20095;-84
2024/04/06 04:26:49;;;;;;;5.47;2.55;;;;;;;11.47;100.00;100895.53;8375191;28;20102;-85
2024/04/06 04:30:50;;;;;;;4.88;2.42;;;;;;;11.22;100.00;100910.94;8379167;28;20095;-85
2024/04/06 04:34:51;;;;;;;4.72;3.08;;;;;;;11.26;100.00;100911.44;8347022;28;20124;-85
2024/04/06 04:38:51;;;;;;;4.78;2.70;;;;;;;11.26;100.00;100919.47;8353829;28;20056;-85
2024/04/06 04:42:52;;;;;;;5.47;4.07;;;;;;;11.46;100.00;100912.66;8379468;28;20060;-85
2024/04/06 04:46:53;;;;;;;4.97;2.60;;;;;;;11.26;100.00;100920.31;8374426;28;20393;-84
2024/04/06 04:50:53;;;;;;;6.55;3.38;;;;;;;11.12;100.00;100913.03;8372296;28;20061;-85
2024/04/06 04:54:54;;;;;;;3.92;2.70;;;;;;;11.08;100.00;100914.38;8357082;28;20104;-86
2024/04/06 04:58:55;;;;;;;7.70;2.70;;;;;;;11.05;100.00;100910.22;8356605;28;20053;-84
2024/04/06 05:02:56;;;;;;;3.80;2.58;;;;;;;10.81;100.00;100926.41;8356086;28;20044;-86
2024/04/06 05:06:57;;;;;;;3.95;2.72;;;;;;;10.90;100.00;100935.25;8358076;28;20087;-85
2024/04/06 05:10:58;;;;;;;7.72;2.75;;;;;;;11.04;100.00;100930.00;8357979;28;20053;-85
2024/04/06 05:14:58;;;;;;;6.00;2.83;;;;;;;11.16;100.00;100931.28;8370666;28;20106;-85
2024/04/06 05:18:59;;;;;;;8.27;2.72;;;;;;;11.38;100.00;100932.31;8370805;28;20091;-85
2024/04/06 05:23:00;;;;;;;5.97;2.97;;;;;;;11.47;100.00;100941.16;8361251;28;20049;-86
2024/04/06 05:27:02;;;;;;;5.93;2.85;;;;;;;11.70;100.00;100946.50;8322747;28;20049;-84
2024/04/06 05:31:03;;;;;;;5.75;2.85;;;;;;;11.38;100.00;100952.94;8353683;28;20091;-85
2024/04/06 05:35:06;;;;;;;6.47;2.80;;;;;;;11.46;100.00;100950.22;8325896;28;20339;-84
2024/04/06 05:39:06;;;;;;;5.05;2.75;;;;;;;11.53;100.00;100966.44;8322442;28;20085;-85
2024/04/06 05:43:07;;;;;;;4.88;3.03;;;;;;;11.52;100.00;100973.66;8366061;28;20056;-84
2024/04/06 05:47:07;;;;;;;4.60;2.72;;;;;;;11.54;100.00;100973.47;8371830;28;20053;-84
2024/04/06 05:51:08;;;;;;;6.65;3.50;;;;;;;11.77;100.00;100974.31;8354361;28;20503;-84
2024/04/06 05:55:09;;;;;;;4.47;2.60;;;;;;;11.78;100.00;100979.53;8367916;28;20076;-85
2024/04/06 05:59:09;;;;;;;5.57;2.85;;;;;;;11.93;100.00;100965.31;8370891;28;20068;-84
2024/04/06 06:03:11;;;;;;;4.07;2.95;;;;;;;12.03;100.00;100964.06;8385974;28;20089;-84
2024/04/06 06:07:11;;;;;;;4.03;2.70;;;;;;;12.28;100.00;100969.22;8372108;28;20044;-84
2024/04/06 06:11:12;;;;;;;5.53;2.55;;;;;;;12.47;100.00;100976.72;8366166;28;20049;-84
2024/04/06 06:15:13;;;;;;;5.95;2.53;;;;;;;12.40;100.00;100978.50;8376388;28;20139;-82
2024/04/06 06:19:13;;;;;;;4.65;2.80;;;;;;;12.72;100.00;100982.69;8379342;28;20146;-82
2024/04/06 06:23:14;;;;;;;6.38;2.80;;;;;;;12.90;100.00;100995.78;8362430;28;20052;-80
2024/04/06 06:27:15;;;;;;;5.75;2.72;;;;;;;12.92;100.00;100994.56;8376448;28;20060;-81
2024/04/06 06:31:16;;;;;;;7.28;2.60;;;;;;;13.19;100.00;100993.09;8376237;28;20099;-79
2024/04/06 06:35:17;;;;;;;4.55;2.78;;;;;;;13.26;100.00;100995.84;8347452;28;20053;-78
2024/04/06 06:39:17;;;;;;;5.53;3.13;;;;;;;13.26;100.00;100998.56;8363684;28;20091;-80
2024/04/06 06:43:20;;;;;;;3.60;2.42;;;;;;;13.30;100.00;100991.75;8376726;28;20400;-81
2024/04/06 06:47:23;;;;;;;68.45;48.40;;;;;;;13.54;100.00;100996.00;8377161;28;20087;-79
2024/04/06 06:51:25;;;;;;;5.95;3.47;;;;;;;13.50;100.00;100990.13;8375556;28;20081;-79
2024/04/06 06:55:25;;;;;;;6.22;2.35;;;;;;;13.73;100.00;101000.75;8328446;28;20092;-79
2024/04/06 06:59:26;;;;;;;2.53;2.13;;;;;;;14.10;100.00;100999.66;8357437;28;20091;-79
2024/04/06 07:03:27;;;;;;;4.70;2.22;;;;;;;13.99;100.00;100989.38;8378316;28;20092;-81
2024/04/06 07:07:27;;;;;;;3.85;2.40;;;;;;;14.17;100.00;100991.63;8383341;28;20056;-78
2024/04/06 07:11:28;;;;;;;3.83;2.35;;;;;;;14.10;100.00;100990.75;8378490;28;20106;-80
2024/04/06 07:15:28;;;;;;;5.25;2.30;;;;;;;14.25;100.00;100993.34;8375764;28;20118;-80
2024/04/06 07:19:29;;;;;;;4.63;2.10;;;;;;;14.34;100.00;101006.47;8359229;28;20068;-79
2024/04/06 07:23:30;;;;;;;3.05;1.92;;;;;;;14.56;100.00;100995.66;8376722;28;20099;-79
2024/04/06 07:27:33;;;;;;;6.75;2.40;;;;;;;14.89;100.00;101004.81;8360107;28;20084;-79
2024/04/06 07:31:34;;;;;;;3.70;2.15;;;;;;;14.80;100.00;100999.78;8353015;28;20530;-79
2024/04/06 07:35:34;;;;;;;2.45;1.80;;;;;;;14.84;100.00;101003.75;8365372;28;20128;-79
2024/04/06 07:39:35;;;;;;;7.78;2.28;;;;;;;15.00;100.00;101003.44;8359354;28;20053;-79
2024/04/06 07:43:36;;;;;;;6.68;1.92;;;;;;;15.19;100.00;101012.66;8358030;28;20460;-78
2024/04/06 07:47:36;;;;;;;4.63;2.30;;;;;;;15.49;100.00;101015.91;8356151;28;20061;-78
2024/04/06 07:51:39;;;;;;;2.88;1.85;;;;;;;15.88;97.70;101012.50;8365172;28;20492;-80
2024/04/06 07:55:40;;;;;;;2.65;1.40;;;;;;;16.03;93.99;101009.59;8378066;28;20077;-78
2024/04/06 07:59:41;;;;;;;3.47;1.70;;;;;;;16.48;90.59;101000.66;8359148;28;20064;-79
2024/04/06 08:03:41;;;;;;;6.38;2.25;;;;;;;16.77;91.22;100998.56;8375775;28;20052;-79
2024/04/06 08:07:42;;;;;;;4.78;1.73;;;;;;;17.24;87.95;100997.38;8362572;28;20052;-79
2024/04/06 08:11:42;;;;;;;2.05;1.40;;;;;;;17.24;83.97;100994.69;8365185;28;20053;-80
2024/04/06 08:15:44;;;;;;;4.55;1.63;;;;;;;17.38;87.44;101009.84;8381052;28;20087;-83
2024/04/06 08:19:45;;;;;;;3.42;1.45;;;;;;;16.97;84.88;101017.47;8363066;28;20087;-81
2024/04/06 08:23:46;;;;;;;3.63;1.55;;;;;;;17.46;81.58;101025.00;8374951;28;20041;-81
2024/04/06 08:27:46;;;;;;;3.30;1.60;;;;;;;17.67;84.18;101029.25;8375364;28;20508;-79
2024/04/06 08:31:47;;;;;;;6.22;1.83;;;;;;;17.68;82.48;101031.78;8374296;28;20076;-79
2024/04/06 08:35:57;;;;;;;2.50;1.40;;;;;;;17.82;80.06;101037.97;8374549;28;20075;-81
2024/04/06 08:39:58;;;;;;;2.60;1.40;;;;;;;17.89;79.89;101037.94;8384498;28;20075;-81
2024/04/06 08:44:00;;;;;;;1.67;1.13;;;;;;;18.04;79.16;101033.84;8377569;28;20049;-83
2024/04/06 08:48:01;;;;;;;3.03;1.35;;;;;;;18.87;76.93;101047.16;8379894;28;20088;-82
2024/04/06 08:52:01;;;;;;;2.50;1.35;;;;;;;18.73;71.76;101042.09;8359772;28;20060;-83
2024/04/06 08:56:06;;;;;;;2.78;1.60;;;;;;;19.27;74.21;101042.16;8395039;28;20050;-83
2024/04/06 09:00:16;;;;;;;3.97;1.38;;;;;;;18.64;72.47;101034.25;8466251;28;20385;-84
2024/04/06 09:04:17;;;;;;;8.40;1.92;;;;;;;18.33;71.90;101031.56;8416511;28;20484;-84
2024/04/06 09:08:18;;;;;;;2.60;1.20;;;;;;;18.81;71.91;101033.69;8418986;28;20145;-84
2024/04/06 09:12:18;;;;;;;3.20;1.50;;;;;;;18.95;69.09;101052.31;8403909;28;20696;-85
2024/04/06 09:16:20;;;;;;;2.72;1.42;;;;;;;19.21;70.68;101043.03;8425049;28;20074;-86
2024/04/06 09:20:22;;;;;;;3.22;1.38;;;;;;;19.21;69.65;101036.78;8403785;28;20091;-83
2024/04/06 09:24:29;;;;;;;3.83;1.50;;;;;;;19.57;66.21;101034.06;8401671;28;20136;-83
2024/04/06 09:28:33;;;;;;;3.75;1.40;;;;;;;19.95;67.64;101038.34;8418025;28;20486;-83
2024/04/06 09:32:35;;;;;;;5.70;1.50;;;;;;;19.78;65.36;101037.34;8418704;28;20098;-82
2024/04/06 09:36:42;;;;;;;4.55;1.70;;;;;;;19.80;64.99;101018.94;8418767;28;20087;-82
2024/04/06 09:40:44;;;;;;;4.47;1.30;;;;;;;19.72;66.72;101021.97;8414686;28;20091;-82
2024/04/06 09:44:45;;;;;;;3.72;1.00;;;;;;;18.97;68.60;101023.06;8397854;28;20472;-84
2024/04/06 09:48:47;;;;;;;5.40;1.48;;;;;;;19.61;65.31;101025.44;8401360;28;20052;-87
2024/04/06 09:52:48;;;;;;;4.93;1.50;;;;;;;19.58;66.33;101026.72;8402302;28;20095;-83
2024/04/06 09:56:49;;;;;;;4.22;1.50;;;;;;;20.28;62.98;101024.22;8420011;28;20049;-82
2024/04/06 10:00:50;;;;;;;2.55;1.40;;;;;;;19.74;62.95;101038.88;8387544;28;20488;-85
2024/04/06 10:04:56;;;;;;;1.85;0.88;;;;;;;19.71;62.24;101047.47;8402983;28;20068;-84
2024/04/06 10:09:00;;;;;;;2.45;1.00;;;;;;;20.10;62.06;101040.63;8395610;28;20083;-83
2024/04/06 10:13:04;;;;;;;3.67;1.17;;;;;;;20.95;58.88;101034.81;8397308;28;20096;-82
2024/04/06 10:17:09;;;;;;;2.15;1.00;;;;;;;20.99;59.09;101039.53;8397738;28;20099;-83
2024/04/06 10:21:10;;;;;;;2.88;1.17;;;;;;;20.88;57.61;101023.25;8377938;28;20149;-83
2024/04/06 10:25:13;;;;;;;2.03;1.10;;;;;;;20.82;59.25;101016.81;8395466;28;20092;-83
2024/04/06 10:29:16;;;;;;;3.00;1.30;;;;;;;21.46;55.77;101023.13;8396145;28;20083;-84
2024/04/06 10:33:18;;;;;;;1.73;1.13;;;;;;;20.96;56.35;101022.84;8396902;28;20543;-83
2024/04/06 10:37:18;;;;;;;4.07;1.13;;;;;;;21.70;54.99;101026.63;8401210;28;20049;-82
2024/04/06 10:41:19;;;;;;;2.70;1.08;;;;;;;21.15;56.17;101026.25;8399148;28;20166;-82
2024/04/06 10:45:20;;;;;;;4.38;1.13;;;;;;;21.63;54.97;101020.47;8410079;28;20057;-83
2024/04/06 10:49:21;;;;;;;2.67;1.27;;;;;;;22.02;54.40;101009.72;8380518;28;20133;-84
2024/04/06 10:53:22;;;;;;;2.53;1.10;;;;;;;21.98;53.45;101001.19;8393633;28;20048;-83
2024/04/06 10:57:24;;;;;;;4.63;2.22;;;;;;;22.67;52.56;101007.25;8392336;28;20492;-83
2024/04/06 11:01:26;;;;;;;4.05;1.40;;;;;;;23.43;49.70;100999.28;8394523;28;20051;-82
2024/04/06 11:05:27;;;;;;;2.42;1.33;;;;;;;22.15;50.82;100990.34;8401858;28;20056;-83
2024/04/06 11:09:28;;;;;;;1.92;1.10;;;;;;;22.90;49.93;100995.31;8400256;28;20048;-84
2024/04/06 11:13:29;;;;;;;2.45;1.00;;;;;;;23.40;49.60;100997.88;8395581;28;20064;-83
2024/04/06 11:17:30;;;;;;;4.57;1.10;;;;;;;22.41;50.32;101007.97;8369933;28;20564;-83
2024/04/06 11:21:31;;;;;;;2.47;0.93;;;;;;;21.64;52.43;101006.59;8376659;28;20263;-84
2024/04/06 11:25:39;;;;;;;1.65;1.00;;;;;;;22.72;51.39;101010.06;8379194;28;20072;-83
2024/04/06 11:29:43;;;;;;;3.10;1.17;;;;;;;22.88;48.64;101002.13;8393834;28;20099;-83
2024/04/06 11:33:43;;;;;;;1.58;0.80;;;;;;;22.84;49.53;101002.63;8391655;28;20094;-83
2024/04/06 11:37:44;;;;;;;2.53;1.00;;;;;;;23.11;47.53;100996.44;8392269;28;20071;-83
2024/04/06 11:41:45;;;;;;;2.88;0.90;;;;;;;23.10;47.67;100992.88;8390811;28;20080;-83
2024/04/06 11:45:46;;;;;;;2.88;1.08;;;;;;;23.00;48.64;100991.91;8391286;28;20523;-83
2024/04/06 11:49:50;;;;;;;4.03;1.10;;;;;;;23.29;49.56;100993.38;8390458;28;20496;-84
2024/04/06 11:53:50;;;;;;;3.20;0.88;;;;;;;22.50;49.74;101001.00;8374326;28;20507;-85
2024/04/06 11:57:51;;;;;;;2.28;0.70;;;;;;;21.73;50.64;100998.03;8381188;28;20086;-84
2024/04/06 12:01:53;;;;;;;2.97;0.90;;;;;;;22.76;49.88;100988.56;8418080;28;20121;-84
2024/04/06 12:05:54;;;;;;;2.65;0.80;;;;;;;23.20;49.31;101002.28;8385174;28;20060;-86
2024/04/06 12:09:55;;;;;;;1.20;1.10;;;;;;;23.55;48.75;101018.28;8390517;28;20114;-85
2024/04/06 12:13:55;;;;;;;2.42;1.08;;;;;;;23.42;47.59;101030.41;8373836;28;20057;-85
2024/04/06 12:17:56;;;;;;;2.17;1.00;;;;;;;22.72;48.80;101018.25;8374544;28;20052;-85
2024/04/06 12:21:57;;;;;;;4.25;1.10;;;;;;;23.66;47.11;101009.13;8388639;28;20090;-85
2024/04/06 12:25:58;;;;;;;1.63;0.90;;;;;;;24.17;48.52;101013.19;8382245;28;20048;-85
2024/04/06 12:29:58;;;;;;;1.52;0.68;;;;;;;24.16;47.15;100991.56;8336939;28;20049;-84
2024/04/06 12:33:59;;;;;;;1.58;0.90;;;;;;;24.26;47.62;100986.16;8348895;28;20059;-84
2024/04/06 12:38:00;;;;;;;1.58;0.85;;;;;;;23.31;47.29;100991.22;8385366;28;20044;-84
2024/04/06 12:42:00;;;;;;;2.85;1.02;;;;;;;23.98;45.65;100995.50;8386435;28;20055;-84
2024/04/06 12:46:02;;;;;;;1.85;0.90;;;;;;;22.94;47.49;101009.31;8360429;28;20053;-84
2024/04/06 12:50:02;;;;;;;1.42;0.73;;;;;;;23.86;45.84;101003.88;8382105;28;20075;-81
2024/04/06 12:54:03;;;;;;;1.55;0.60;;;;;;;23.52;45.78;100999.66;8390439;28;20056;-80
2024/04/06 12:58:06;;;;;;;3.38;1.55;;;;;;;24.83;45.97;100993.69;8365675;28;20076;-81
2024/04/06 13:02:10;;;;;;;2.08;0.93;;;;;;;24.72;45.06;100995.53;8358330;28;20485;-79
2024/04/06 13:06:10;;;;;;;1.63;0.75;;;;;;;25.24;42.57;100981.84;8376985;28;20476;-80
2024/04/06 13:10:11;;;;;;;1.83;1.20;;;;;;;25.15;42.90;100994.41;8379314;28;20061;-85
2024/04/06 13:14:12;;;;;;;1.83;0.85;;;;;;;24.95;43.21;100995.13;8379380;28;20447;-85
2024/04/06 13:18:14;;;;;;;1.70;0.90;;;;;;;24.34;44.29;100989.28;8401194;28;20075;-84
2024/04/06 13:22:14;;;;;;;1.60;0.70;;;;;;;25.29;43.89;100989.25;8374088;28;20056;-85
2024/04/06 13:26:15;;;;;;;2.08;1.00;;;;;;;24.40;44.06;100968.22;8388392;28;20048;-85
2024/04/06 13:30:18;;;;;;;1.58;0.77;;;;;;;24.92;43.84;100946.34;8399535;28;20052;-86
2024/04/06 13:34:23;;;;;;;1.85;0.85;;;;;;;26.34;41.23;100950.44;8372208;28;20063;-85
2024/04/06 13:38:24;;;;;;;2.33;0.88;;;;;;;25.59;41.55;100950.13;8349047;28;20131;-86
2024/04/06 13:42:25;;;;;;;1.50;0.73;;;;;;;26.16;41.25;100935.38;8371045;28;20053;-85
2024/04/06 13:46:26;;;;;;;1.77;0.80;;;;;;;26.57;40.41;100951.81;8364526;28;20053;-86
2024/04/06 13:50:26;;;;;;;1.58;0.68;;;;;;;27.13;40.16;100965.41;8351148;28;20110;-86
2024/04/06 13:54:28;;;;;;;0.93;0.60;;;;;;;24.98;42.27;100962.78;8334776;28;20083;-87
2024/04/06 13:58:29;;;;;;;2.58;0.90;;;;;;;24.65;43.96;100954.72;8349757;28;20150;-86
2024/04/06 14:02:30;;;;;;;1.23;0.70;;;;;;;25.46;41.97;100942.44;8340668;28;20053;-87
2024/04/06 14:06:31;;;;;;;3.00;0.98;;;;;;;24.66;42.18;100939.09;8335628;28;20056;-87
2024/04/06 14:10:32;;;;;;;0.98;0.60;;;;;;;24.24;43.31;100928.09;8373463;28;20061;-87
2024/04/06 14:14:34;;;;;;;2.05;0.77;;;;;;;25.24;41.98;100934.44;8423092;28;20045;-85
2024/04/06 14:18:36;;;;;;;2.25;0.77;;;;;;;25.15;42.22;100927.81;8383195;28;20055;-85
2024/04/06 14:22:38;;;;;;;2.30;0.70;;;;;;;25.65;41.44;100940.81;8392819;28;20115;-86
2024/04/06 14:26:39;;;;;;;1.60;0.60;;;;;;;25.70;41.45;100929.06;8390665;28;20059;-87
2024/04/06 14:30:40;;;;;;;1.10;0.60;;;;;;;26.63;40.70;100923.22;8358909;28;20060;-86
2024/04/06 14:34:40;;;;;;;1.33;0.60;;;;;;;27.20;38.14;100908.97;8402300;28;20040;-87
2024/04/06 14:38:41;;;;;;;2.05;0.70;;;;;;;26.14;40.03;100915.59;8384138;28;20106;-86
2024/04/06 14:42:43;;;;;;;1.83;0.70;;;;;;;26.75;39.12;100923.75;8400836;28;20052;-87
2024/04/06 14:46:44;;;;;;;1.70;0.70;;;;;;;27.02;39.10;100904.94;8378855;28;20049;-86
2024/04/06 14:50:44;;;;;;;1.38;0.63;;;;;;;27.65;38.04;100901.56;8351018;28;20500;-86
2024/04/06 14:54:46;;;;;;;1.92;0.80;;;;;;;27.48;38.52;100898.38;8367824;28;20052;-87
2024/04/06 14:58:47;;;;;;;1.30;0.93;;;;;;;27.72;37.48;100898.47;8384507;28;20052;-86
2024/04/06 15:02:48;;;;;;;0.95;0.65;;;;;;;27.65;38.32;100901.56;8373704;28;20057;-87
2024/04/06 15:06:49;;;;;;;3.75;1.00;;;;;;;26.96;39.16;100903.31;8422992;28;20033;-86
2024/04/06 15:10:50;;;;;;;1.40;0.75;;;;;;;26.30;40.54;100895.25;8406426;28;20039;-87
2024/04/06 15:14:51;;;;;;;2.35;0.70;;;;;;;26.95;40.25;100903.59;8369594;28;20044;-86
2024/04/06 15:18:52;;;;;;;0.70;0.60;;;;;;;26.35;41.47;100902.69;8378584;28;20048;-85
2024/04/06 15:22:53;;;;;;;3.33;0.90;;;;;;;25.51;43.31;100893.06;8336394;28;20164;-86
2024/04/06 15:26:54;;;;;;;1.98;0.80;;;;;;;24.54;45.29;100880.97;8352757;28;20123;-87
2024/04/06 15:30:54;;;;;;;0.95;0.65;;;;;;;24.84;45.32;100874.81;8355634;28;20094;-87
2024/04/06 15:34:57;;;;;;;5.53;3.08;;;;;;;24.23;45.78;100869.81;8385036;28;20099;-86
2024/04/06 15:38:58;;;;;;;2.63;1.00;;;;;;;24.60;45.70;100875.22;8383257;28;20052;-87
2024/04/06 15:43:24;;;;;;;1.50;0.98;;;;;;;24.34;47.05;100868.00;8387635;28;20048;-87
2024/04/06 15:47:25;;;;;;;4.20;1.08;;;;;;;24.17;46.62;100873.59;8376578;28;20393;-86
2024/04/06 15:51:26;;;;;;;1.70;0.90;;;;;;;24.56;46.49;100873.31;8374753;28;20497;-87
2024/04/06 15:55:28;;;;;;;2.25;0.70;;;;;;;24.45;46.69;100885.28;8398464;28;20056;-86
2024/04/06 15:59:31;;;;;;;2.15;0.98;;;;;;;23.86;47.66;100878.03;8369028;28;20056;-86
2024/04/06 16:03:31;;;;;;;2.58;0.93;;;;;;;24.50;46.29;100871.63;8358922;28;20158;-85
2024/04/06 16:07:32;;;;;;;1.70;0.80;;;;;;;24.67;46.44;100865.97;8373765;28;20064;-88
2024/04/06 16:11:34;;;;;;;2.03;1.10;;;;;;;24.87;45.53;100874.25;8369866;28;20539;-86
2024/04/06 16:15:34;;;;;;;1.65;1.10;;;;;;;24.46;45.58;100867.75;8361485;28;20090;-87
2024/04/06 16:19:36;;;;;;;2.03;1.20;;;;;;;23.95;47.07;100860.06;8367293;28;20053;-86
2024/04/06 16:23:37;;;;;;;1.88;0.82;;;;;;;23.88;48.00;100862.16;8353231;28;20055;-86
2024/04/06 16:27:38;;;;;;;1.80;1.00;;;;;;;23.88;48.12;100869.56;8370334;28;20071;-87
2024/04/06 16:31:38;;;;;;;2.53;1.00;;;;;;;23.61;49.04;100862.25;8354980;28;20049;-86
2024/04/06 16:35:39;;;;;;;2.60;1.40;;;;;;;23.72;48.78;100849.47;8359765;28;20056;-86
2024/04/06 16:39:40;;;;;;;4.63;2.28;;;;;;;24.43;47.66;100851.88;8352342;28;20560;-85
2024/04/06 16:43:42;;;;;;;2.53;1.67;;;;;;;24.99;46.83;100861.13;8376167;28;20063;-86
2024/04/06 16:47:43;;;;;;;3.40;1.50;;;;;;;25.94;45.03;100858.00;8369594;28;20052;-86
2024/04/06 16:51:44;;;;;;;3.55;1.27;;;;;;;25.53;45.54;100863.47;8365631;28;20056;-86
2024/04/06 16:55:44;;;;;;;5.00;2.30;;;;;;;24.93;46.32;100849.34;8385448;28;20061;-86
2024/04/06 16:59:45;;;;;;;11.35;7.82;;;;;;;24.44;47.63;100859.00;8366537;28;20096;-86
2024/04/06 17:03:46;;;;;;;3.45;1.60;;;;;;;23.65;49.77;100852.44;8366808;28;20063;-86
2024/04/06 17:07:47;;;;;;;3.58;1.60;;;;;;;23.52;50.81;100857.47;8350182;28;20115;-86
2024/04/06 17:11:48;;;;;;;2.80;1.30;;;;;;;23.25;51.09;100849.28;8347135;28;20052;-86
2024/04/06 17:15:49;;;;;;;3.20;1.42;;;;;;;23.04;51.55;100842.78;8389834;28;20053;-86
2024/04/06 17:19:50;;;;;;;2.85;1.52;;;;;;;22.85;52.23;100855.97;8401963;28;20037;-84
2024/04/06 17:23:51;;;;;;;3.38;1.42;;;;;;;22.58;53.28;100861.34;8367569;28;20412;-85
2024/04/06 17:27:52;;;;;;;4.25;1.70;;;;;;;22.48;53.09;100848.38;8378844;28;20072;-86
2024/04/06 17:31:54;;;;;;;2.38;1.23;;;;;;;22.41;53.63;100849.66;8391031;28;20121;-85
2024/04/06 17:35:54;;;;;;;3.50;2.00;;;;;;;22.29;54.55;100851.66;8378018;28;20052;-80
2024/04/06 17:39:55;;;;;;;4.15;1.92;;;;;;;22.14;54.44;100857.72;8371469;28;20071;-81
2024/04/06 17:43:55;;;;;;;4.38;2.35;;;;;;;22.25;54.40;100851.34;8364503;28;20373;-81
2024/04/06 17:47:56;;;;;;;2.92;1.90;;;;;;;21.95;55.06;100868.06;8365668;28;20048;-82
2024/04/06 17:51:57;;;;;;;3.63;2.28;;;;;;;21.86;55.81;100866.81;8396309;28;20499;-80
2024/04/06 17:55:57;;;;;;;4.82;3.20;;;;;;;21.73;56.24;100858.97;8389180;28;20143;-81
2024/04/06 17:59:58;;;;;;;5.90;4.20;;;;;;;21.53;57.17;100852.13;8395379;28;20052;-81
2024/04/06 18:03:58;;;;;;;22.75;7.93;;;;;;;21.45;57.71;100857.97;8373034;28;20064;-80
2024/04/06 18:08:01;;;;;;;7.20;5.20;;;;;;;21.27;58.53;100859.00;8377389;28;20063;-83
2024/04/06 18:12:03;;;;;;;6.70;2.83;;;;;;;21.36;57.33;100857.53;8382124;28;20070;-83
2024/04/06 18:16:05;;;;;;;5.07;2.53;;;;;;;21.31;57.69;100848.44;8376396;28;20080;-82
2024/04/06 18:20:07;;;;;;;4.05;2.25;;;;;;;21.11;58.03;100851.59;8393240;28;20088;-82
2024/04/06 18:24:08;;;;;;;3.80;2.67;;;;;;;21.10;58.06;100855.38;8370349;28;20523;-83
2024/04/06 18:28:09;;;;;;;5.85;2.85;;;;;;;21.02;58.34;100853.88;8389925;28;20045;-81
2024/04/06 18:32:09;;;;;;;4.78;2.38;;;;;;;21.06;58.35;100857.78;8389584;28;20070;-81
2024/04/06 18:36:10;;;;;;;3.28;2.00;;;;;;;20.95;58.61;100869.53;8386462;28;20079;-82